createdAt,value
2019-06-26T00:02:22.898Z,64.10
2019-06-26T00:04:51.855Z,64.20
2019-06-26T00:07:20.982Z,64.20
2019-06-26T00:09:49.797Z,64.20
2019-06-26T00:12:18.688Z,64.50
2019-06-26T00:14:47.820Z,64.40
2019-06-26T00:17:16.595Z,64.60
2019-06-26T00:19:45.812Z,64.60
2019-06-26T00:22:14.588Z,64.70
2019-06-26T00:24:43.771Z,64.90
2019-06-26T00:27:12.578Z,64.80
2019-06-26T00:29:41.464Z,65.00
2019-06-26T00:32:10.508Z,65.20
2019-06-26T00:34:39.383Z,65.10
2019-06-26T00:37:09.014Z,65.20
2019-06-26T00:39:38.273Z,65.30
2019-06-26T00:42:07.389Z,65.40
2019-06-26T00:44:36.299Z,65.50
2019-06-26T00:47:05.500Z,65.60
2019-06-26T00:49:34.369Z,65.70
2019-06-26T00:52:03.468Z,65.90
2019-06-26T00:54:32.731Z,65.90
2019-06-26T00:57:01.917Z,66.00
2019-06-26T00:59:30.771Z,66.00
2019-06-26T01:02:00.021Z,66.20
2019-06-26T01:04:32.946Z,66.20
2019-06-26T01:07:02.043Z,66.30
2019-06-26T01:09:30.883Z,66.30
2019-06-26T01:12:00.011Z,66.40
2019-06-26T01:14:28.825Z,66.60
2019-06-26T01:16:58.120Z,66.60
2019-06-26T01:19:26.906Z,66.70
2019-06-26T01:21:55.714Z,66.80
2019-06-26T01:24:24.870Z,66.90
2019-06-26T01:26:54.014Z,67.00
2019-06-26T01:29:22.776Z,67.10
2019-06-26T01:31:51.687Z,67.20
2019-06-26T01:34:20.460Z,67.30
2019-06-26T01:36:49.255Z,67.20
2019-06-26T01:39:18.028Z,67.30
2019-06-26T01:41:47.038Z,67.30
2019-06-26T01:44:16.396Z,67.40
2019-06-26T01:46:45.281Z,67.40
2019-06-26T01:49:14.203Z,67.60
2019-06-26T01:51:43.142Z,67.70
2019-06-26T01:54:12.022Z,67.70
2019-06-26T01:56:41.137Z,67.60
2019-06-26T01:59:10.190Z,67.60
2019-06-26T02:01:39.131Z,67.70
2019-06-26T02:04:08.123Z,68.00
2019-06-26T02:06:37.127Z,68.00
2019-06-26T02:09:06.560Z,68.10
2019-06-26T02:11:35.662Z,68.20
2019-06-26T02:14:04.507Z,68.40
2019-06-26T02:16:33.425Z,68.40
2019-06-26T02:19:05.135Z,68.40
2019-06-26T02:21:33.988Z,68.50
2019-06-26T02:24:02.901Z,68.50
2019-06-26T02:26:32.082Z,68.90
2019-06-26T02:29:00.910Z,68.80
2019-06-26T02:31:29.787Z,68.80
2019-06-26T02:33:58.679Z,68.90
2019-06-26T02:36:27.533Z,68.90
2019-06-26T02:38:56.690Z,68.80
2019-06-26T02:41:26.198Z,69.20
2019-06-26T02:43:55.151Z,69.10
2019-06-26T02:46:23.909Z,69.30
2019-06-26T02:48:52.946Z,69.30
2019-06-26T02:51:21.774Z,69.30
2019-06-26T02:53:50.799Z,69.40
2019-06-26T02:56:19.701Z,70.30
2019-06-26T02:58:48.797Z,69.60
2019-06-26T03:01:17.793Z,69.60
2019-06-26T03:03:46.696Z,69.50
2019-06-26T03:06:16.894Z,69.40
2019-06-26T03:08:45.794Z,69.60
2019-06-26T03:11:14.781Z,69.70
2019-06-26T03:13:43.563Z,69.90
2019-06-26T03:16:12.638Z,70.00
2019-06-26T03:18:41.631Z,70.10
2019-06-26T03:21:10.795Z,70.10
2019-06-26T03:23:40.021Z,71.10
2019-06-26T03:26:09.113Z,70.40
2019-06-26T03:28:38.038Z,70.30
2019-06-26T03:31:07.236Z,70.30
2019-06-26T03:33:36.103Z,70.30
2019-06-26T03:36:04.979Z,70.50
2019-06-26T03:38:34.193Z,70.50
2019-06-26T03:41:03.028Z,70.60
2019-06-26T03:43:35.349Z,70.70
2019-06-26T03:46:02.803Z,70.80
2019-06-26T03:48:32.090Z,71.40
2019-06-26T03:51:01.130Z,71.30
2019-06-26T03:53:30.244Z,70.90
2019-06-26T03:55:59.342Z,70.90
2019-06-26T03:58:28.617Z,70.70
2019-06-26T04:00:57.730Z,71.00
2019-06-26T04:03:26.801Z,70.90
2019-06-26T04:05:55.746Z,70.70
2019-06-26T04:08:25.103Z,70.80
2019-06-26T04:10:54.383Z,70.80
2019-06-26T04:13:23.446Z,70.80
2019-06-26T04:15:52.691Z,70.90
2019-06-26T04:18:22.090Z,70.80
2019-06-26T04:20:51.207Z,71.00
2019-06-26T04:23:20.992Z,71.10
2019-06-26T04:25:50.379Z,70.90
2019-06-26T04:28:19.303Z,71.00
2019-06-26T04:30:48.154Z,71.10
2019-06-26T04:33:17.003Z,71.00
2019-06-26T04:35:46.040Z,71.30
2019-06-26T04:38:15.115Z,71.20
2019-06-26T04:40:44.066Z,71.10
2019-06-26T04:43:13.329Z,71.10
2019-06-26T04:45:57.096Z,71.30
2019-06-26T04:48:13.038Z,71.40
2019-06-26T04:50:42.043Z,71.30
2019-06-26T04:53:11.373Z,71.30
2019-06-26T04:55:40.508Z,71.40
2019-06-26T04:58:09.843Z,71.40
2019-06-26T05:00:38.654Z,71.70
2019-06-26T05:03:07.447Z,72.20
2019-06-26T05:05:39.932Z,72.20
2019-06-26T05:08:07.076Z,72.40
2019-06-26T05:10:35.986Z,72.30
2019-06-26T05:13:05.049Z,72.20
2019-06-26T05:15:33.999Z,72.50
2019-06-26T05:18:03.556Z,72.30
2019-06-26T05:20:32.467Z,72.30
2019-06-26T05:23:01.268Z,72.00
2019-06-26T05:25:30.158Z,72.90
2019-06-26T05:27:59.069Z,72.10
2019-06-26T05:30:28.261Z,72.00
2019-06-26T05:32:57.620Z,71.90
2019-06-26T05:35:26.523Z,72.00
2019-06-26T05:37:55.339Z,72.10
2019-06-26T05:40:24.289Z,72.30
2019-06-26T05:42:53.190Z,72.40
2019-06-26T05:45:22.793Z,72.80
2019-06-26T05:47:51.686Z,72.90
2019-06-26T05:50:21.358Z,73.20
2019-06-26T05:52:50.459Z,73.10
2019-06-26T05:55:19.507Z,73.00
2019-06-26T05:57:48.662Z,73.40
2019-06-26T06:00:19.145Z,73.30
2019-06-26T06:02:48.265Z,73.40
2019-06-26T06:05:17.666Z,73.00
2019-06-26T06:07:47.725Z,73.60
2019-06-26T06:10:17.515Z,73.70
2019-06-26T06:12:47.013Z,73.30
2019-06-26T06:15:16.415Z,73.20
2019-06-26T06:17:45.969Z,73.20
2019-06-26T06:20:18.963Z,73.20
2019-06-26T06:22:48.282Z,73.00
2019-06-26T06:25:17.347Z,72.90
2019-06-26T06:27:47.775Z,72.80
2019-06-26T06:30:17.167Z,73.90
2019-06-26T06:32:46.169Z,73.10
2019-06-26T06:35:16.190Z,73.00
2019-06-26T06:37:45.518Z,72.80
2019-06-26T06:40:14.634Z,72.90
2019-06-26T06:43:01.304Z,73.40
2019-06-26T06:45:54.479Z,73.10
2019-06-26T06:48:23.384Z,72.90
2019-06-26T06:50:52.670Z,73.00
2019-06-26T06:53:21.917Z,73.00
2019-06-26T06:55:50.844Z,72.80
2019-06-26T06:58:21.536Z,73.00
2019-06-26T07:00:50.429Z,72.80
2019-06-26T07:03:19.933Z,72.60
2019-06-26T07:05:52.390Z,72.80
2019-06-26T07:08:21.310Z,72.40
2019-06-26T07:10:50.534Z,72.50
2019-06-26T07:13:19.755Z,72.30
2019-06-26T07:15:50.136Z,71.70
2019-06-26T07:18:19.418Z,71.90
2019-06-26T07:20:49.025Z,71.80
2019-06-26T07:23:18.220Z,72.00
2019-06-26T07:25:47.067Z,73.00
2019-06-26T07:28:16.072Z,72.30
2019-06-26T07:30:45.306Z,72.50
2019-06-26T07:33:14.162Z,72.10
2019-06-26T07:35:43.147Z,72.10
2019-06-26T07:38:12.619Z,71.90
2019-06-26T07:40:41.561Z,71.70
2019-06-26T07:43:10.751Z,71.90
2019-06-26T07:45:39.645Z,71.70
2019-06-26T07:48:08.645Z,71.70
2019-06-26T07:50:37.566Z,71.70
2019-06-26T07:53:06.712Z,71.50
2019-06-26T07:55:36.234Z,71.30
2019-06-26T07:58:06.610Z,71.20
2019-06-26T08:00:35.788Z,71.10
2019-06-26T08:03:04.982Z,70.90
2019-06-26T08:05:34.208Z,70.90
2019-06-26T08:08:03.254Z,70.60
2019-06-26T08:10:32.418Z,70.50
2019-06-26T08:15:47.248Z,70.20
2019-06-26T08:18:16.291Z,70.00
2019-06-26T08:20:55.366Z,69.90
2019-06-26T08:23:16.498Z,69.70
2019-06-26T08:25:45.648Z,69.60
2019-06-26T08:28:14.831Z,69.60
2019-06-26T08:30:43.875Z,69.40
2019-06-26T08:33:13.526Z,69.30
2019-06-26T08:35:42.492Z,69.10
2019-06-26T08:38:15.463Z,68.90
2019-06-26T08:40:43.226Z,68.80
2019-06-26T08:43:12.183Z,68.70
2019-06-26T08:45:41.601Z,68.60
2019-06-26T08:48:22.855Z,68.40
2019-06-26T08:50:41.930Z,68.20
2019-06-26T08:53:11.398Z,68.00
2019-06-26T08:55:40.967Z,67.80
2019-06-26T08:58:10.424Z,67.60
2019-06-26T09:00:39.334Z,67.50
2019-06-26T09:03:08.348Z,67.50
2019-06-26T09:05:47.441Z,67.30
2019-06-26T09:08:08.212Z,67.30
2019-06-26T09:10:37.548Z,67.30
2019-06-26T09:13:06.657Z,66.90
2019-06-26T09:15:35.585Z,67.00
2019-06-26T09:18:04.541Z,66.80
2019-06-26T09:20:40.193Z,66.80
2019-06-26T09:23:09.874Z,66.80
2019-06-26T09:25:38.863Z,66.60
2019-06-26T09:28:07.830Z,66.30
2019-06-26T09:30:37.015Z,66.10
2019-06-26T09:33:05.999Z,66.00
2019-06-26T09:35:35.281Z,65.70
2019-06-26T09:38:04.562Z,65.60
2019-06-26T09:40:33.722Z,65.60
2019-06-26T09:43:02.678Z,65.40
2019-06-26T09:45:31.683Z,65.30
2019-06-26T09:48:00.545Z,65.10
2019-06-26T09:50:29.726Z,65.10
2019-06-26T09:53:00.116Z,65.00
2019-06-26T09:55:29.115Z,65.00
2019-06-26T09:57:58.250Z,64.80
2019-06-26T10:00:27.496Z,64.60
2019-06-26T10:02:56.453Z,64.50
2019-06-26T10:05:25.462Z,64.20
2019-06-26T10:07:54.587Z,64.20
2019-06-26T10:10:25.343Z,64.10
2019-06-26T10:12:54.661Z,63.90
2019-06-26T10:15:23.683Z,64.00
2019-06-26T10:17:52.672Z,63.60
2019-06-26T10:20:22.348Z,63.30
2019-06-26T10:22:51.242Z,63.30
2019-06-26T10:25:22.367Z,63.00
2019-06-26T10:27:51.429Z,62.70
2019-06-26T10:30:20.881Z,62.50
2019-06-26T10:32:50.151Z,62.20
2019-06-26T10:35:20.079Z,61.90
2019-06-26T10:37:49.420Z,61.90
2019-06-26T10:40:18.442Z,61.10
2019-06-26T10:42:47.370Z,60.80
2019-06-26T10:45:16.489Z,60.50
2019-06-26T10:47:46.202Z,60.50
2019-06-26T10:50:15.814Z,60.10
2019-06-26T10:52:44.710Z,60.00
2019-06-26T10:55:13.869Z,59.80
2019-06-26T10:57:43.515Z,59.80
2019-06-26T11:00:12.788Z,59.70
2019-06-26T11:02:41.887Z,59.70
2019-06-26T11:05:11.340Z,59.30
2019-06-26T11:07:40.350Z,58.90
2019-06-26T11:10:09.750Z,58.90
2019-06-26T11:12:39.177Z,59.00
2019-06-26T11:15:08.578Z,59.00
2019-06-26T11:17:37.610Z,58.90
2019-06-26T11:20:06.984Z,58.70
2019-06-26T11:22:36.014Z,58.70
2019-06-26T11:25:07.231Z,58.40
2019-06-26T11:27:36.556Z,58.50
2019-06-26T11:30:06.851Z,58.50
2019-06-26T11:32:35.833Z,58.60
2019-06-26T11:35:06.761Z,58.40
2019-06-26T11:37:36.047Z,58.10
2019-06-26T11:40:05.787Z,57.80
2019-06-26T11:42:35.064Z,57.60
2019-06-26T11:45:04.834Z,57.40
2019-06-26T11:47:34.019Z,57.70
2019-06-26T11:50:03.254Z,57.60
2019-06-26T11:52:32.309Z,57.00
2019-06-26T11:55:02.971Z,56.80
2019-06-26T11:57:32.067Z,57.20
2019-06-26T12:00:01.029Z,57.30
2019-06-26T12:02:30.037Z,57.10
2019-06-26T12:04:58.970Z,56.90
2019-06-26T12:07:28.076Z,56.70
2019-06-26T12:09:57.040Z,56.50
2019-06-26T12:12:26.299Z,56.50
2019-06-26T12:14:55.197Z,56.00
2019-06-26T12:17:24.262Z,55.90
2019-06-26T12:19:53.130Z,55.60
2019-06-26T12:22:22.026Z,55.20
2019-06-26T12:24:50.959Z,55.30
2019-06-26T12:27:19.961Z,55.50
2019-06-26T12:29:48.947Z,55.50
2019-06-26T12:32:18.047Z,55.40
2019-06-26T12:34:47.859Z,55.30
2019-06-26T12:37:17.003Z,55.10
2019-06-26T12:39:45.995Z,54.70
2019-06-26T12:42:14.951Z,54.90
2019-06-26T12:44:44.610Z,54.40
2019-06-26T12:47:13.696Z,54.50
2019-06-26T12:49:42.868Z,54.90
2019-06-26T12:52:11.885Z,55.00
2019-06-26T12:54:42.127Z,54.70
2019-06-26T12:57:11.044Z,54.90
2019-06-26T12:59:55.978Z,55.10
2019-06-26T13:02:11.599Z,55.00
2019-06-26T13:04:44.465Z,54.90
2019-06-26T13:07:11.507Z,55.00
2019-06-26T13:09:40.676Z,54.30
2019-06-26T13:12:09.606Z,54.60
2019-06-26T13:14:38.514Z,54.60
2019-06-26T13:17:07.719Z,54.00
2019-06-26T13:19:37.313Z,54.10
2019-06-26T13:22:06.774Z,54.40
2019-06-26T13:24:36.034Z,54.50
2019-06-26T13:27:05.319Z,54.40
2019-06-26T13:29:34.518Z,54.30
2019-06-26T13:32:03.804Z,54.00
2019-06-26T13:34:32.727Z,53.90
2019-06-26T13:37:01.971Z,54.00
2019-06-26T13:39:31.007Z,53.60
2019-06-26T13:42:03.427Z,53.70
2019-06-26T13:44:32.719Z,54.00
2019-06-26T13:47:01.942Z,53.80
2019-06-26T13:49:31.037Z,53.50
2019-06-26T13:51:59.858Z,53.30
2019-06-26T13:54:30.202Z,53.10
2019-06-26T13:56:59.293Z,53.80
2019-06-26T13:59:28.909Z,53.10
2019-06-26T14:01:57.827Z,52.90
2019-06-26T14:04:27.064Z,52.60
2019-06-26T14:06:56.288Z,52.80
2019-06-26T14:09:25.485Z,52.10
2019-06-26T14:11:54.375Z,52.60
2019-06-26T14:14:40.948Z,52.70
2019-06-26T14:16:54.788Z,52.20
2019-06-26T14:19:26.743Z,52.70
2019-06-26T14:21:54.564Z,52.80
2019-06-26T14:24:24.287Z,52.60
2019-06-26T14:26:53.510Z,52.00
2019-06-26T14:29:22.587Z,52.40
2019-06-26T14:31:52.324Z,52.60
2019-06-26T14:34:21.571Z,52.30
2019-06-26T14:36:50.511Z,52.50
2019-06-26T14:39:19.399Z,52.40
2019-06-26T14:41:48.368Z,52.80
2019-06-26T14:44:17.451Z,52.40
2019-06-26T14:46:46.715Z,52.50
2019-06-26T14:49:15.727Z,52.10
2019-06-26T14:51:47.672Z,52.50
2019-06-26T14:54:15.351Z,52.30
2019-06-26T14:56:44.322Z,52.10
2019-06-26T14:59:13.223Z,52.10
2019-06-26T15:01:42.148Z,51.90
2019-06-26T15:04:11.056Z,51.70
2019-06-26T15:06:40.036Z,51.80
2019-06-26T15:09:09.392Z,51.60
2019-06-26T15:11:38.395Z,51.70
2019-06-26T15:14:07.431Z,51.60
2019-06-26T15:16:36.611Z,51.60
2019-06-26T15:19:05.676Z,51.50
2019-06-26T15:21:34.716Z,51.40
2019-06-26T15:24:04.038Z,51.50
2019-06-26T15:26:32.966Z,51.10
2019-06-26T15:29:01.950Z,51.20
2019-06-26T15:31:30.978Z,51.20
2019-06-26T15:34:00.138Z,51.00
2019-06-26T15:36:29.119Z,51.10
2019-06-26T15:38:59.346Z,50.70
2019-06-26T15:41:28.606Z,51.30
2019-06-26T15:43:57.785Z,51.40
2019-06-26T15:46:27.016Z,51.30
2019-06-26T15:48:55.978Z,50.90
2019-06-26T15:51:24.891Z,50.90
2019-06-26T15:53:54.032Z,50.70
2019-06-26T15:56:23.278Z,50.40
2019-06-26T15:58:52.444Z,50.30
2019-06-26T16:01:21.405Z,50.50
2019-06-26T16:03:50.264Z,50.80
2019-06-26T16:06:19.388Z,50.90
2019-06-26T16:08:48.627Z,50.90
2019-06-26T16:11:19.742Z,50.80
2019-06-26T16:13:49.041Z,50.50
2019-06-26T16:16:18.202Z,50.30
2019-06-26T16:18:52.635Z,49.90
2019-06-26T16:21:23.539Z,50.00
2019-06-26T16:23:52.796Z,50.10
2019-06-26T16:26:22.138Z,49.80
2019-06-26T16:28:55.391Z,49.80
2019-06-26T16:31:24.640Z,50.10
2019-06-26T16:33:53.639Z,49.70
2019-06-26T16:36:23.043Z,49.70
2019-06-26T16:38:52.038Z,49.40
2019-06-26T16:41:21.155Z,49.00
2019-06-26T16:43:50.740Z,49.30
2019-06-26T16:46:20.350Z,49.50
2019-06-26T16:48:49.818Z,49.30
2019-06-26T16:51:18.726Z,49.10
2019-06-26T16:53:47.619Z,49.50
2019-06-26T16:56:16.792Z,49.50
2019-06-26T16:58:46.940Z,49.50
2019-06-26T17:01:15.864Z,49.40
2019-06-26T17:03:44.970Z,49.30
2019-06-26T17:06:13.919Z,48.90
2019-06-26T17:08:43.020Z,48.50
2019-06-26T17:11:12.312Z,48.30
2019-06-26T17:13:41.214Z,48.70
2019-06-26T17:16:10.247Z,48.90
2019-06-26T17:18:39.378Z,49.30
2019-06-26T17:21:08.363Z,49.70
2019-06-26T17:23:37.485Z,50.10
2019-06-26T17:26:08.253Z,50.30
2019-06-26T17:28:37.166Z,50.70
2019-06-26T17:31:06.277Z,50.90
2019-06-26T17:33:35.303Z,51.00
2019-06-26T17:36:04.219Z,51.20
2019-06-26T17:38:33.269Z,51.50
2019-06-26T17:41:02.629Z,51.90
2019-06-26T17:43:31.840Z,52.10
2019-06-26T17:46:01.448Z,52.20
2019-06-26T17:48:30.746Z,52.50
2019-06-26T17:50:59.898Z,52.80
2019-06-26T17:53:29.011Z,52.90
2019-06-26T17:55:57.968Z,53.00
2019-06-26T17:58:27.142Z,53.10
2019-06-26T18:00:56.325Z,53.20
2019-06-26T18:03:34.431Z,53.50
2019-06-26T18:06:03.812Z,53.70
2019-06-26T18:08:32.694Z,53.90
2019-06-26T18:11:01.565Z,54.00
2019-06-26T18:13:30.482Z,54.10
2019-06-26T18:15:59.512Z,54.30
2019-06-26T18:18:28.579Z,54.40
2019-06-26T18:20:57.620Z,54.60
2019-06-26T18:23:37.122Z,54.90
2019-06-26T18:26:12.334Z,55.10
2019-06-26T18:28:31.704Z,55.20
2019-06-26T18:31:00.695Z,55.40
2019-06-26T18:33:29.503Z,55.60
2019-06-26T18:35:58.697Z,55.80
2019-06-26T18:38:28.958Z,56.00
2019-06-26T18:40:58.193Z,56.20
2019-06-26T18:43:27.427Z,56.20
2019-06-26T18:45:56.414Z,56.50
2019-06-26T18:48:25.656Z,56.70
2019-06-26T18:50:54.558Z,56.90
2019-06-26T18:53:23.649Z,56.80
2019-06-26T18:55:52.615Z,57.10
2019-06-26T18:58:21.673Z,57.30
2019-06-26T19:00:50.849Z,57.50
2019-06-26T19:03:19.790Z,57.50
2019-06-26T19:05:49.442Z,57.90
2019-06-26T19:08:18.839Z,58.30
2019-06-26T19:10:48.086Z,58.80
2019-06-26T19:13:20.291Z,58.80
2019-06-26T19:15:47.819Z,58.80
2019-06-26T19:18:18.087Z,59.90
2019-06-26T19:20:47.085Z,59.30
2019-06-26T19:23:16.485Z,59.60
2019-06-26T19:25:45.455Z,59.70
2019-06-26T19:28:14.758Z,59.90
2019-06-26T19:30:44.067Z,60.30
2019-06-26T19:33:13.043Z,60.10
2019-06-26T19:35:55.384Z,60.30
2019-06-26T19:38:24.944Z,60.40
2019-06-26T19:40:54.111Z,60.80
2019-06-26T19:43:23.492Z,60.70
2019-06-26T19:45:58.896Z,60.70
2019-06-26T19:48:28.512Z,60.70
2019-06-26T19:50:57.625Z,61.30
2019-06-26T19:53:28.061Z,61.40
2019-06-26T19:55:57.664Z,61.80
2019-06-26T19:58:26.614Z,61.70
2019-06-26T20:00:55.768Z,61.90
2019-06-26T20:03:24.715Z,62.00
2019-06-26T20:05:53.887Z,61.90
2019-06-26T20:08:22.992Z,62.30
2019-06-26T20:10:52.231Z,62.40
2019-06-26T20:13:21.107Z,62.30
2019-06-26T20:15:50.390Z,63.20
2019-06-26T20:18:19.532Z,62.50
2019-06-26T20:20:48.675Z,62.40
2019-06-26T20:23:18.396Z,62.80
2019-06-26T20:25:47.319Z,62.50
2019-06-26T20:28:16.312Z,62.60
2019-06-26T20:30:45.133Z,62.60
2019-06-26T20:33:14.408Z,62.60
2019-06-26T20:35:43.316Z,62.80
2019-06-26T20:38:12.819Z,62.90
2019-06-26T20:40:45.728Z,62.90
2019-06-26T20:43:13.539Z,63.10
2019-06-26T20:45:42.571Z,63.00
2019-06-26T20:48:14.352Z,63.20
2019-06-26T20:50:43.250Z,63.50
2019-06-26T20:53:12.106Z,63.70
2019-06-26T20:55:41.051Z,63.60
2019-06-26T20:58:11.190Z,63.60
2019-06-26T21:00:40.114Z,63.90
2019-06-26T21:03:09.081Z,64.00
2019-06-26T21:05:37.971Z,63.90
2019-06-26T21:08:06.864Z,63.80
2019-06-26T21:10:35.993Z,64.30
2019-06-26T21:13:04.917Z,64.00
2019-06-26T21:15:34.026Z,64.20
2019-06-26T21:18:02.971Z,64.10
2019-06-26T21:20:31.865Z,64.10
2019-06-26T21:23:00.846Z,64.20
2019-06-26T21:25:29.854Z,64.10
2019-06-26T21:28:01.085Z,64.20
2019-06-26T21:30:30.049Z,65.20
2019-06-26T21:32:58.911Z,64.50
2019-06-26T21:35:28.174Z,64.70
2019-06-26T21:37:57.118Z,64.60
2019-06-26T21:40:25.925Z,64.80
2019-06-26T21:42:54.769Z,64.50
2019-06-26T21:45:23.771Z,64.70
2019-06-26T21:47:52.821Z,64.60
2019-06-26T21:50:22.785Z,64.70
2019-06-26T21:52:51.962Z,64.60
2019-06-26T21:55:33.642Z,64.70
2019-06-26T21:57:53.401Z,64.80
2019-06-26T22:00:24.006Z,64.80
2019-06-26T22:02:52.962Z,64.70
2019-06-26T22:05:21.892Z,65.00
2019-06-26T22:07:50.826Z,64.80
2019-06-26T22:10:19.776Z,64.80
2019-06-26T22:12:48.903Z,64.90
2019-06-26T22:15:17.883Z,65.00
2019-06-26T22:17:46.911Z,65.20
2019-06-26T22:20:16.981Z,65.10
2019-06-26T22:22:46.178Z,65.00
2019-06-26T22:25:15.376Z,65.00
2019-06-26T22:27:44.346Z,65.20
2019-06-26T22:30:14.632Z,65.10
2019-06-26T22:32:43.885Z,65.10
2019-06-26T22:35:13.217Z,65.30
2019-06-26T22:37:42.377Z,65.30
2019-06-26T22:40:11.866Z,65.30
2019-06-26T22:42:41.098Z,65.20
2019-06-26T22:45:10.480Z,65.30
2019-06-26T22:47:39.988Z,65.20
2019-06-26T22:50:09.848Z,65.20
2019-06-26T22:52:39.343Z,66.00
2019-06-26T22:55:08.609Z,65.30
2019-06-26T22:57:37.643Z,65.30
2019-06-26T23:00:07.764Z,65.20
2019-06-26T23:02:37.556Z,65.30
2019-06-26T23:05:06.515Z,65.30
2019-06-26T23:07:35.591Z,65.40
2019-06-26T23:10:04.639Z,65.30
2019-06-26T23:12:39.795Z,65.60
2019-06-26T23:15:09.499Z,65.50
2019-06-26T23:17:39.089Z,66.10
2019-06-26T23:20:08.568Z,65.60
2019-06-26T23:22:37.561Z,65.70
2019-06-26T23:25:07.253Z,65.70
2019-06-26T23:27:36.381Z,65.80
2019-06-26T23:30:07.413Z,65.60
2019-06-26T23:32:36.247Z,65.60
2019-06-26T23:35:05.354Z,65.80
2019-06-26T23:37:34.500Z,66.10
2019-06-26T23:40:03.683Z,65.70
2019-06-26T23:42:33.192Z,65.80
2019-06-26T23:45:02.268Z,65.90
2019-06-26T23:47:44.546Z,65.80
2019-06-26T23:50:13.662Z,66.50
2019-06-26T23:52:42.747Z,65.90
2019-06-26T23:55:11.732Z,65.90
2019-06-26T23:57:54.665Z,66.10
